Time;durP1;ratioP1;P1;durP2;ratioP2;P2;SDS_P1;SDS_P2;PMS_P1;PMS_P2;Temp;Humidity;BMP_temperature;BMP_pressure;BME280_temperature;BME280_humidity;BME280_pressure;Samples;Min_cycle;Max_cycle;Signal;HPM_P1;HPM_P2
2024/01/18 00:01:51;;;;;;;66.60;35.80;;;;;;;-1.42;83.16;98113.42;105950;1290;75597;-62
2024/01/18 00:04:37;;;;;;;70.40;38.30;;;;;;;-1.41;83.31;98109.52;106011;1290;67380;-61
2024/01/18 00:07:22;;;;;;;69.70;37.50;;;;;;;-1.38;83.33;98106.63;105948;1290;72414;-62
2024/01/18 00:10:09;;;;;;;72.80;39.50;;;;;;;-1.37;83.35;98113.21;105981;1289;59380;-61
2024/01/18 00:12:55;;;;;;;82.80;42.10;;;;;;;-1.36;83.40;98113.88;105989;1290;59866;-61
2024/01/18 00:15:41;;;;;;;73.70;40.20;;;;;;;-1.35;83.47;98117.75;105962;1291;73729;-61
2024/01/18 00:18:27;;;;;;;77.50;41.00;;;;;;;-1.36;83.38;98120.30;105959;1291;68302;-63
2024/01/18 00:21:13;;;;;;;73.00;39.80;;;;;;;-1.36;83.49;98127.57;105934;1291;72694;-62
2024/01/18 00:23:59;;;;;;;77.10;38.90;;;;;;;-1.34;83.48;98131.95;105994;1290;58377;-61
2024/01/18 00:26:44;;;;;;;72.40;39.30;;;;;;;-1.35;83.50;98130.42;105971;1290;59985;-61
2024/01/18 00:29:31;;;;;;;71.00;37.70;;;;;;;-1.35;83.46;98135.66;105991;1290;72221;-61
2024/01/18 00:32:17;;;;;;;69.60;38.30;;;;;;;-1.36;83.51;98128.41;105978;1291;68103;-61
2024/01/18 00:35:03;;;;;;;70.30;38.50;;;;;;;-1.37;83.22;98132.30;105963;1290;73205;-61
2024/01/18 00:37:49;;;;;;;63.10;34.10;;;;;;;-1.41;82.94;98134.54;105965;1291;59808;-61
2024/01/18 00:40:35;;;;;;;65.80;36.10;;;;;;;-1.48;83.03;98141.17;105967;1291;60816;-61
2024/01/18 00:43:21;;;;;;;63.70;35.70;;;;;;;-1.50;83.43;98146.09;105984;1290;74466;-61
2024/01/18 00:46:07;;;;;;;70.50;37.50;;;;;;;-1.48;83.54;98148.10;105971;1290;68528;-61
2024/01/18 00:48:53;;;;;;;70.20;37.30;;;;;;;-1.44;83.65;98151.95;105934;1290;72013;-61
2024/01/18 00:51:39;;;;;;;75.80;38.30;;;;;;;-1.41;83.74;98160.21;105968;1290;58888;-61
2024/01/18 00:54:25;;;;;;;69.40;36.40;;;;;;;-1.38;83.68;98165.09;105985;1290;59992;-62
2024/01/18 00:57:11;;;;;;;70.30;37.80;;;;;;;-1.36;83.72;98168.96;105958;1290;74002;-61
2024/01/18 00:59:58;;;;;;;73.80;38.70;;;;;;;-1.35;83.71;98170.64;105994;1291;69160;-61
2024/01/18 01:02:44;;;;;;;71.20;37.80;;;;;;;-1.34;83.48;98168.27;105930;1290;72507;-61
2024/01/18 01:05:30;;;;;;;64.20;35.10;;;;;;;-1.37;83.35;98171.00;105959;1290;59042;-62
2024/01/18 01:08:16;;;;;;;68.10;38.20;;;;;;;-1.39;83.64;98175.73;105978;1291;59251;-62
2024/01/18 01:11:08;;;;;;;70.00;37.20;;;;;;;-1.38;83.58;98183.00;105989;1290;72383;-62
2024/01/18 01:13:55;;;;;;;66.60;35.40;;;;;;;-1.36;83.79;98184.51;105965;1290;67542;-62
2024/01/18 01:16:41;;;;;;;65.40;36.20;;;;;;;-1.35;83.76;98187.04;105972;1290;71125;-61
2024/01/18 01:19:27;;;;;;;67.30;36.70;;;;;;;-1.33;83.75;98179.58;105951;1290;59181;-61
2024/01/18 01:22:13;;;;;;;70.40;38.10;;;;;;;-1.30;83.87;98182.61;105959;1291;60043;-61
2024/01/18 01:24:59;;;;;;;69.10;37.40;;;;;;;-1.29;83.82;98185.30;105950;1291;74226;-61
2024/01/18 01:27:45;;;;;;;;;;;;;;;-1.28;83.89;98186.65;106012;1290;67575;-61
2024/01/18 01:30:31;;;;;;;;;;;;;;;-1.28;83.87;98186.14;101987;1291;5003869;-61
2024/01/18 01:33:17;;;;;;;59.70;33.60;;;;;;;-1.27;83.96;98186.64;105967;1290;59187;-61
2024/01/18 01:36:05;;;;;;;66.80;35.70;;;;;;;-1.27;83.93;98187.32;106000;1290;73447;-61
2024/01/18 01:38:51;;;;;;;64.90;35.20;;;;;;;-1.27;83.82;98185.96;105925;1294;68570;-61
2024/01/18 01:41:37;;;;;;;65.50;36.00;;;;;;;-1.28;83.71;98188.34;105896;1291;72555;-61
2024/01/18 01:44:23;;;;;;;64.60;35.70;;;;;;;-1.31;83.64;98186.67;105910;1291;58951;-61
2024/01/18 01:47:08;;;;;;;66.40;35.60;;;;;;;-1.33;83.77;98179.75;105886;1291;60422;-61
2024/01/18 01:49:55;;;;;;;72.00;37.40;;;;;;;-1.35;83.78;98179.09;105926;1290;73382;-61
2024/01/18 01:52:42;;;;;;;69.40;37.50;;;;;;;-1.34;84.00;98177.23;105924;1290;68262;-61
2024/01/18 01:55:28;;;;;;;63.40;36.10;;;;;;;-1.32;84.03;98186.00;105685;1293;72753;-61
2024/01/18 01:58:15;;;;;;;72.00;38.20;;;;;;;-1.31;84.02;98184.30;105878;1291;59028;-61
2024/01/18 02:01:02;;;;;;;64.10;36.30;;;;;;;-1.31;83.91;98181.77;105797;1293;60016;-61
2024/01/18 02:03:48;;;;;;;69.60;36.70;;;;;;;-1.31;83.91;98188.70;105945;1291;73397;-62
2024/01/18 02:06:36;;;;;;;70.40;38.30;;;;;;;-1.35;83.83;98195.32;105925;1292;67252;-61
2024/01/18 02:09:22;;;;;;;69.70;37.20;;;;;;;-1.35;84.07;98193.29;105882;1290;71120;-61
2024/01/18 02:12:10;;;;;;;73.70;38.50;;;;;;;-1.35;83.80;98205.63;105494;1290;61278;-60
2024/01/18 02:14:57;;;;;;;74.50;39.60;;;;;;;-1.41;83.76;98208.37;105778;1290;196146;-61
2024/01/18 02:17:43;;;;;;;79.50;41.60;;;;;;;-1.45;83.84;98216.84;105917;1292;74416;-61
2024/01/18 02:20:29;;;;;;;76.80;39.20;;;;;;;-1.45;83.96;98221.57;105925;1295;67325;-60
2024/01/18 02:23:16;;;;;;;75.40;40.40;;;;;;;-1.45;83.99;98221.07;105920;1290;72929;-61
2024/01/18 02:26:02;;;;;;;69.40;39.30;;;;;;;-1.45;84.04;98218.87;105881;1292;59242;-61
2024/01/18 02:29:01;;;;;;;67.60;38.60;;;;;;;-1.44;83.96;98216.67;105886;1291;60002;-60
2024/01/18 02:31:52;;;;;;;77.90;39.30;;;;;;;-1.46;84.02;98223.44;105816;1293;73362;-61
2024/01/18 02:34:39;;;;;;;73.60;38.50;;;;;;;-1.46;83.99;98225.64;105893;1291;67333;-61
2024/01/18 02:37:26;;;;;;;85.60;42.50;;;;;;;-1.49;83.95;98226.33;104829;1293;72616;-60
2024/01/18 02:40:12;;;;;;;82.40;42.80;;;;;;;-1.53;83.91;98230.91;104498;1295;61304;-59
2024/01/18 02:43:00;;;;;;;78.30;41.60;;;;;;;-1.55;84.02;98233.31;97403;1292;10003863;-60
2024/01/18 02:45:46;;;;;;;85.30;44.30;;;;;;;-1.57;83.98;98224.89;104534;1291;71281;-60
2024/01/18 02:48:33;;;;;;;;;;;;;;;-1.60;84.03;98232.16;104536;1291;61346;-60
2024/01/18 02:51:19;;;;;;;77.00;41.60;;;;;;;-1.63;84.10;98232.87;104606;1292;60714;-60
2024/01/18 02:54:05;;;;;;;;;;;;;;;-1.66;84.12;98234.73;104616;1294;73187;-60
2024/01/18 02:56:52;;;;;;;79.40;40.60;;;;;;;-1.71;84.08;98234.42;104569;1295;67025;-60
2024/01/18 02:59:38;;;;;;;77.10;43.20;;;;;;;-1.74;84.07;98236.30;104549;1294;73584;-61
2024/01/18 03:02:24;;;;;;;;;;;;;;;-1.78;84.09;98232.10;104556;1294;61064;-60
2024/01/18 03:05:10;;;;;;;77.50;39.80;;;;;;;-1.81;84.08;98238.02;104548;1294;61463;-60
2024/01/18 03:07:57;;;;;;;80.10;42.90;;;;;;;-1.86;84.09;98239.40;104578;1294;73146;-60
2024/01/18 03:10:43;;;;;;;86.20;44.10;;;;;;;-1.88;83.98;98243.12;104617;1291;69415;-60
2024/01/18 03:13:29;;;;;;;78.00;42.90;;;;;;;-1.90;83.97;98256.30;104584;1291;72389;-59
2024/01/18 03:16:16;;;;;;;79.20;44.10;;;;;;;-1.92;83.98;98257.48;104531;1294;61127;-61
2024/01/18 03:19:02;;;;;;;78.20;41.30;;;;;;;-1.93;84.18;98258.84;104571;1293;61276;-61
2024/01/18 03:21:48;;;;;;;;;;;;;;;-1.93;84.17;98261.88;104578;1294;74498;-60
2024/01/18 03:24:34;;;;;;;69.90;38.40;;;;;;;-1.93;84.29;98275.56;104573;1292;67157;-60
2024/01/18 03:27:21;;;;;;;75.80;42.30;;;;;;;-1.97;84.22;98282.31;104604;1291;71224;-60
2024/01/18 03:30:07;;;;;;;83.80;42.30;;;;;;;-1.98;84.11;98280.13;104563;1292;61290;-60
2024/01/18 03:32:54;;;;;;;85.80;44.90;;;;;;;-1.99;84.13;98283.85;104551;1291;61164;-60
2024/01/18 03:35:42;;;;;;;79.00;42.60;;;;;;;-2.01;84.11;98293.80;104589;1294;73191;-59
2024/01/18 03:38:28;;;;;;;73.30;41.40;;;;;;;-2.03;84.03;98293.30;104622;1291;69276;-59
2024/01/18 03:41:15;;;;;;;84.10;43.60;;;;;;;-2.06;84.05;98311.38;104681;1291;71204;-60
2024/01/18 03:44:01;;;;;;;90.60;48.20;;;;;;;-2.07;84.13;98312.58;105933;1290;59505;-61
2024/01/18 03:46:47;;;;;;;;;;;;;;;-2.09;84.06;98315.80;106013;1290;60238;-62
2024/01/18 03:49:33;;;;;;;71.20;39.50;;;;;;;-2.11;84.09;98315.98;105970;1291;74576;-61
2024/01/18 03:52:19;;;;;;;73.80;41.10;;;;;;;-2.12;84.28;98326.96;106002;1290;67749;-61
2024/01/18 03:55:06;;;;;;;76.00;41.30;;;;;;;-2.11;84.15;98326.95;105025;1294;71476;-59
2024/01/18 03:57:52;;;;;;;78.60;41.90;;;;;;;-2.10;84.16;98334.04;105320;1291;61160;-59
2024/01/18 04:00:39;;;;;;;79.40;43.10;;;;;;;-2.12;84.07;98342.98;104676;1291;60061;-59
2024/01/18 04:03:25;;;;;;;76.20;42.30;;;;;;;-2.13;84.24;98356.48;104675;1291;73219;-60
2024/01/18 04:06:13;;;;;;;;;;;;;;;-2.12;84.25;98362.06;104708;1290;67911;-59
2024/01/18 04:09:00;;;;;;;79.00;42.60;;;;;;;-2.12;84.22;98368.81;104629;1295;71275;-59
2024/01/18 04:11:46;;;;;;;79.70;42.00;;;;;;;-2.13;84.29;98367.96;104629;1295;61320;-60
2024/01/18 04:14:33;;;;;;;86.50;42.80;;;;;;;-2.16;84.22;98364.27;104697;1295;61256;-60
2024/01/18 04:17:19;;;;;;;77.60;42.90;;;;;;;-2.18;84.11;98363.25;104674;1291;74379;-60
2024/01/18 04:20:06;;;;;;;83.50;43.70;;;;;;;-2.21;84.08;98365.28;104702;1291;70035;-60
2024/01/18 04:22:53;;;;;;;80.80;42.40;;;;;;;-2.23;84.25;98367.48;104692;1295;73973;-59
2024/01/18 04:25:39;;;;;;;78.40;42.60;;;;;;;-2.26;84.28;98374.23;104647;1291;61333;-59
2024/01/18 04:28:25;;;;;;;82.90;43.40;;;;;;;-2.28;84.38;98379.45;104650;1291;61107;-60
2024/01/18 04:31:12;;;;;;;82.60;44.00;;;;;;;-2.30;84.37;98385.70;104683;1291;73727;-60
2024/01/18 04:33:58;;;;;;;82.30;41.90;;;;;;;-2.31;84.30;98392.11;104690;1291;71244;-59
2024/01/18 04:36:44;;;;;;;85.10;44.70;;;;;;;-2.32;84.30;98397.34;104613;1295;71760;-60
2024/01/18 04:39:30;;;;;;;;;;;;;;;-2.33;84.43;98401.56;104705;1291;62772;-60
2024/01/18 04:42:16;;;;;;;77.70;39.60;;;;;;;-2.33;84.39;98408.82;104669;1290;59347;-60
2024/01/18 04:45:06;;;;;;;78.60;41.40;;;;;;;-2.34;84.34;98414.39;104623;1290;73274;-60
2024/01/18 04:47:53;;;;;;;80.30;40.30;;;;;;;-2.35;84.39;98418.77;105577;1290;67905;-60
2024/01/18 04:50:39;;;;;;;74.80;39.50;;;;;;;-2.36;84.32;98416.41;105999;1290;70374;-61
2024/01/18 04:53:25;;;;;;;66.20;38.00;;;;;;;-2.37;84.41;98427.04;105935;1290;59437;-59
2024/01/18 04:56:11;;;;;;;76.30;39.90;;;;;;;-2.37;84.35;98426.20;105971;1290;59090;-60
2024/01/18 04:58:57;;;;;;;70.80;38.80;;;;;;;-2.36;84.49;98419.62;105029;1291;73654;-60
2024/01/18 05:01:44;;;;;;;74.50;37.20;;;;;;;-2.34;84.46;98424.01;104622;1291;70003;-59
2024/01/18 05:04:30;;;;;;;68.70;38.70;;;;;;;-2.33;84.49;98420.97;104636;1291;72981;-59
2024/01/18 05:07:16;;;;;;;;;;;;;;;-2.35;84.41;98419.11;104711;1290;61141;-60
2024/01/18 05:10:12;;;;;;;71.10;35.50;;;;;;;-2.36;84.66;98410.34;104249;1291;10003379;-59
2024/01/18 05:13:18;;;;;;;72.90;35.70;;;;;;;-2.35;84.53;98417.77;54683;1291;20060908;-60
2024/01/18 05:16:04;;;;;;;71.00;37.40;;;;;;;-2.36;84.68;98412.70;105987;1291;72516;-61
2024/01/18 05:18:50;;;;;;;62.80;35.80;;;;;;;-2.34;84.69;98417.77;105991;1290;59393;-61
2024/01/18 05:21:36;;;;;;;;;;;;;;;-2.35;84.53;98427.89;105503;1293;60152;-60
2024/01/18 05:24:23;;;;;;;66.40;35.20;;;;;;;-2.40;84.48;98434.80;104726;1290;76078;-59
2024/01/18 05:27:09;;;;;;;70.10;35.90;;;;;;;-2.45;84.52;98438.85;104706;1291;67296;-60
2024/01/18 05:29:59;;;;;;;65.30;34.30;;;;;;;-2.51;84.41;98446.59;104705;1293;71310;-60
2024/01/18 05:32:46;;;;;;;64.60;35.40;;;;;;;-2.61;84.18;98451.14;104692;1293;61244;-60
2024/01/18 05:35:32;;;;;;;68.40;35.60;;;;;;;-2.73;84.17;98455.86;104701;1291;61179;-60
2024/01/18 05:38:18;;;;;;;;;;;;;;;-2.88;84.22;98455.14;101115;1288;5002871;-60
2024/01/18 05:41:04;;;;;;;62.00;32.10;;;;;;;-2.99;84.14;98460.33;104636;1291;71178;-61
2024/01/18 05:43:51;;;;;;;67.90;34.80;;;;;;;-3.11;84.24;98471.09;104727;1291;61150;-60
2024/01/18 05:46:37;;;;;;;69.50;35.50;;;;;;;-3.21;84.31;98479.31;104664;1291;62895;-60
2024/01/18 05:49:24;;;;;;;63.60;35.20;;;;;;;-3.29;84.26;98487.70;104723;1289;73326;-59
2024/01/18 05:52:11;;;;;;;65.40;34.10;;;;;;;-3.37;84.22;98480.41;104752;1290;67257;-60
2024/01/18 05:54:58;;;;;;;68.30;35.70;;;;;;;-3.45;84.30;98485.93;104680;1291;71276;-63
2024/01/18 05:57:45;;;;;;;69.20;34.50;;;;;;;-3.54;84.21;98488.73;104639;1291;63385;-64
2024/01/18 06:00:31;;;;;;;64.60;33.50;;;;;;;-3.62;84.16;98481.29;104713;1290;61291;-62
2024/01/18 06:03:18;;;;;;;66.20;32.90;;;;;;;-3.70;84.20;98487.16;104697;1290;73254;-61
2024/01/18 06:06:05;;;;;;;63.40;32.20;;;;;;;-3.81;84.21;98495.49;104628;1291;67321;-62
2024/01/18 06:08:51;;;;;;;63.10;33.20;;;;;;;-3.88;84.45;98504.52;105832;1291;72344;-63
2024/01/18 06:11:37;;;;;;;61.40;33.10;;;;;;;-3.94;84.31;98504.64;106037;1290;59778;-63
2024/01/18 06:14:23;;;;;;;58.50;31.70;;;;;;;-4.01;84.28;98511.49;105916;1291;59560;-64
2024/01/18 06:17:09;;;;;;;;;;;;;;;-4.04;84.27;98511.14;105819;1291;74144;-64
2024/01/18 06:19:55;;;;;;;66.20;32.10;;;;;;;-4.04;84.27;98520.55;105946;1290;68583;-63
2024/01/18 06:22:42;;;;;;;58.50;31.00;;;;;;;-4.07;84.32;98523.56;105919;1290;72484;-63
2024/01/18 06:25:28;;;;;;;60.40;30.50;;;;;;;-4.08;84.33;98528.26;105919;1291;59019;-63
2024/01/18 06:28:13;;;;;;;;;;;;;;;-4.03;84.22;98541.09;105930;1293;59590;-63
2024/01/18 06:31:00;;;;;;;66.60;30.40;;;;;;;-3.95;84.59;98547.39;105946;1291;74470;-63
2024/01/18 06:33:46;;;;;;;64.30;33.30;;;;;;;-3.89;84.64;98551.14;105957;1295;68609;-64
2024/01/18 06:36:31;;;;;;;68.50;34.10;;;;;;;-3.83;84.43;98550.69;105759;1291;72445;-63
2024/01/18 06:39:18;;;;;;;;;;;;;;;-3.75;84.38;98555.29;105953;1294;59317;-63
2024/01/18 06:42:07;;;;;;;59.90;30.80;;;;;;;-3.68;84.71;98564.78;105834;1292;59986;-63
2024/01/18 06:44:53;;;;;;;69.30;34.50;;;;;;;-3.64;84.63;98567.98;105941;1293;75120;-63
2024/01/18 06:47:39;;;;;;;63.30;35.40;;;;;;;-3.59;84.83;98573.90;105933;1294;67327;-62
2024/01/18 06:50:25;;;;;;;;;;;;;;;-3.54;84.82;98579.67;105889;1292;71501;-63
2024/01/18 06:53:11;;;;;;;64.40;33.20;;;;;;;-3.47;84.93;98577.20;105813;1293;59358;-63
2024/01/18 06:55:57;;;;;;;68.80;35.20;;;;;;;-3.45;84.83;98569.98;104711;1294;61155;-62
2024/01/18 06:58:44;;;;;;;71.10;36.20;;;;;;;-3.42;84.81;98570.16;104599;1295;76056;-61
2024/01/18 07:01:30;;;;;;;66.20;35.50;;;;;;;-3.45;84.53;98568.62;104580;1294;70052;-62
2024/01/18 07:04:16;;;;;;;71.60;35.40;;;;;;;-3.48;84.72;98568.60;104528;1294;71286;-62
2024/01/18 07:07:03;;;;;;;68.60;35.60;;;;;;;-3.48;84.83;98572.31;104606;1293;61310;-61
2024/01/18 07:09:49;;;;;;;74.30;37.10;;;;;;;-3.50;84.40;98575.32;105892;1294;58985;-62
2024/01/18 07:12:35;;;;;;;;;;;;;;;-3.56;84.69;98584.71;105904;1293;74589;-63
2024/01/18 07:15:21;;;;;;;72.20;36.40;;;;;;;-3.60;84.95;98594.61;32379;1292;10002234;-62
2024/01/18 07:18:07;;;;;;;71.30;36.60;;;;;;;-3.63;84.85;98595.27;105873;1291;59224;-63
2024/01/18 07:20:53;;;;;;;;;;;;;;;-3.63;84.65;98588.86;105925;1293;59184;-63
2024/01/18 07:23:39;;;;;;;73.10;36.70;;;;;;;-3.68;84.62;98589.87;105910;1292;74480;-63
2024/01/18 07:26:25;;;;;;;;;;;;;;;-3.71;84.49;98578.23;105879;1291;67400;-61
2024/01/18 07:29:11;;;;;;;75.30;37.60;;;;;;;-3.72;84.66;98571.48;105897;1293;71733;-62
2024/01/18 07:31:57;;;;;;;69.40;37.20;;;;;;;-3.75;84.99;98579.20;105906;1292;59106;-61
2024/01/18 07:34:44;;;;;;;70.20;35.10;;;;;;;-3.75;84.83;98590.64;105923;1290;59652;-62
2024/01/18 07:37:30;;;;;;;68.50;35.00;;;;;;;-3.72;84.98;98595.38;105786;1291;73437;-62
2024/01/18 07:40:16;;;;;;;71.60;37.60;;;;;;;-3.63;85.06;98597.80;105932;1295;66704;-62
2024/01/18 07:43:03;;;;;;;74.00;36.40;;;;;;;-3.56;85.04;98603.23;105826;1293;71067;-62
2024/01/18 07:45:48;;;;;;;;;;;;;;;-3.50;85.10;98605.64;105910;1291;59529;-62
2024/01/18 07:48:34;;;;;;;71.20;34.30;;;;;;;-3.41;85.19;98608.23;105963;1291;58995;-62
2024/01/18 07:51:20;;;;;;;;;;;;;;;-3.37;84.83;98620.73;105914;1292;73898;-62
2024/01/18 07:54:07;;;;;;;62.40;31.40;;;;;;;-3.33;84.87;98635.23;105906;1293;68609;-61
2024/01/18 07:56:53;;;;;;;60.20;33.10;;;;;;;-3.29;85.10;98645.04;105923;1294;71281;-62
2024/01/18 07:59:39;;;;;;;;;;;;;;;-3.20;85.43;98650.00;105936;1291;58991;-62
2024/01/18 08:02:25;;;;;;;57.50;31.10;;;;;;;-3.09;85.46;98654.09;105900;1295;60065;-62
2024/01/18 08:05:11;;;;;;;56.10;30.90;;;;;;;-3.01;85.51;98652.64;105976;1291;74180;-63
2024/01/18 08:07:57;;;;;;;54.70;29.80;;;;;;;-2.96;85.45;98654.17;105838;1294;67177;-63
2024/01/18 08:10:43;;;;;;;53.20;30.10;;;;;;;-2.93;85.44;98661.11;105920;1295;72033;-63
2024/01/18 08:13:29;;;;;;;57.10;29.10;;;;;;;-2.90;85.17;98673.94;105948;1292;59281;-62
2024/01/18 08:16:15;;;;;;;;;;;;;;;-2.88;85.23;98674.62;105954;1295;59268;-63
2024/01/18 08:21:21;;;;;;;;;;;;;;;-2.83;85.44;98665.23;90334;1296;20001446;-62
2024/01/18 08:24:28;;;;;;;57.50;33.40;;;;;;;-2.63;85.49;98666.00;91210;1290;10061697;-62
2024/01/18 08:27:14;;;;;;;55.30;31.20;;;;;;;-2.60;85.62;98669.73;105185;1295;71334;-61
2024/01/18 08:30:00;;;;;;;;;;;;;;;-2.54;85.61;98679.68;104610;1295;61144;-61
2024/01/18 08:32:46;;;;;;;58.00;30.50;;;;;;;-2.49;85.65;98681.56;104645;1295;63453;-62
2024/01/18 08:35:32;;;;;;;;;;;;;;;-2.42;85.68;98669.45;104589;1290;77205;-61
2024/01/18 08:38:20;;;;;;;57.70;30.60;;;;;;;-2.36;85.85;98658.85;104643;1296;68274;-61
2024/01/18 08:41:07;;;;;;;57.50;29.00;;;;;;;-2.30;85.89;98674.91;104537;1296;73346;-63
2024/01/18 08:43:53;;;;;;;53.80;28.90;;;;;;;-2.29;85.51;98695.84;104681;1295;61405;-61
2024/01/18 08:46:39;;;;;;;56.30;29.60;;;;;;;-2.33;85.46;98708.98;104772;1291;61257;-60
2024/01/18 08:49:26;;;;;;;56.90;29.70;;;;;;;-2.32;85.90;98710.16;104661;1293;73295;-61
2024/01/18 08:52:12;;;;;;;61.60;33.10;;;;;;;-2.27;85.86;98700.73;104654;1291;66172;-61
2024/01/18 08:54:58;;;;;;;;;;;;;;;-2.16;86.05;98696.06;104718;1295;73136;-61
2024/01/18 08:57:45;;;;;;;54.70;29.50;;;;;;;-2.02;86.19;98703.52;104686;1291;61193;-61
2024/01/18 09:00:31;;;;;;;57.60;30.50;;;;;;;-1.88;86.14;98711.50;106038;1288;59728;-62
2024/01/18 09:03:17;;;;;;;56.30;31.70;;;;;;;-1.78;86.10;98704.94;106032;1290;73230;-62
2024/01/18 09:06:03;;;;;;;60.70;29.90;;;;;;;-1.60;86.27;98700.24;106022;1291;67176;-63
2024/01/18 09:08:49;;;;;;;59.40;31.50;;;;;;;-1.42;86.11;98709.55;105990;1291;71654;-63
2024/01/18 09:11:35;;;;;;;56.20;27.30;;;;;;;-1.22;86.24;98712.61;105837;1295;58983;-63
2024/01/18 09:14:21;;;;;;;51.00;26.40;;;;;;;-1.10;85.95;98712.45;105983;1290;58919;-63
2024/01/18 09:17:09;;;;;;;;;;;;;;;-0.97;85.96;98718.33;105999;1295;74611;-63
2024/01/18 09:19:55;;;;;;;43.50;23.00;;;;;;;-0.89;86.02;98728.81;105992;1291;67466;-63
2024/01/18 09:22:41;;;;;;;36.00;21.30;;;;;;;-0.80;85.96;98731.85;105984;1291;72523;-62
2024/01/18 09:25:27;;;;;;;38.20;21.90;;;;;;;-0.70;86.17;98732.69;105970;1291;60517;-61
2024/01/18 09:28:14;;;;;;;39.80;23.00;;;;;;;-0.59;86.05;98737.08;105971;1292;58975;-62
2024/01/18 09:31:00;;;;;;;41.20;22.70;;;;;;;-0.50;86.01;98737.04;105988;1295;73070;-63
2024/01/18 09:33:46;;;;;;;37.10;22.30;;;;;;;-0.56;85.88;98736.39;105964;1293;66475;-62
2024/01/18 09:36:32;;;;;;;34.90;21.90;;;;;;;-0.62;86.01;98739.45;105976;1290;71418;-63
2024/01/18 09:39:18;;;;;;;35.90;21.60;;;;;;;-0.56;86.23;98738.93;105962;1295;59129;-62
2024/01/18 09:42:10;;;;;;;37.00;20.30;;;;;;;-0.48;86.43;98746.17;105860;1291;59276;-63
2024/01/18 09:45:00;;;;;;;42.60;21.80;;;;;;;-0.35;86.30;98756.46;104708;1295;74578;-63
2024/01/18 09:47:47;;;;;;;35.10;21.00;;;;;;;-0.37;86.24;98762.39;104685;1295;67179;-62
2024/01/18 09:50:35;;;;;;;;;;;;;;;-0.38;86.22;98756.30;104550;1290;71253;-61
2024/01/18 09:53:22;;;;;;;36.70;19.10;;;;;;;-0.42;86.27;98754.80;104661;1293;61333;-62
2024/01/18 09:56:17;;;;;;;;;;;;;;;-0.43;86.29;98765.11;104592;1296;61702;-60
2024/01/18 09:59:04;;;;;;;39.80;21.20;;;;;;;-0.46;86.35;98783.06;104728;1292;74071;-61
2024/01/18 10:01:50;;;;;;;33.70;18.80;;;;;;;-0.42;86.49;98793.21;104704;1295;69233;-61
2024/01/18 10:04:36;;;;;;;;;;;;;;;-0.45;86.15;98800.48;104698;1295;75131;-61
2024/01/18 10:07:23;;;;;;;31.80;17.70;;;;;;;-0.46;86.40;98801.68;104739;1291;61388;-60
2024/01/18 10:10:13;;;;;;;30.00;18.50;;;;;;;-0.51;86.12;98803.89;104792;1290;61141;-61
2024/01/18 10:13:02;;;;;;;35.60;20.30;;;;;;;-0.51;86.45;98804.73;104590;1293;73190;-61
2024/01/18 10:15:48;;;;;;;34.40;19.50;;;;;;;-0.38;86.56;98801.16;104717;1292;67419;-61
2024/01/18 10:18:35;;;;;;;;;;;;;;;-0.25;86.73;98798.61;104657;1292;71159;-61
2024/01/18 10:21:23;;;;;;;29.80;17.70;;;;;;;-0.15;86.47;98801.98;104685;1295;61134;-61
2024/01/18 10:24:14;;;;;;;32.80;18.70;;;;;;;-0.18;86.42;98801.80;104685;1295;61498;-61
2024/01/18 10:27:04;;;;;;;29.00;18.70;;;;;;;-0.01;86.52;98811.75;104720;1289;73187;-61
2024/01/18 10:29:50;;;;;;;28.00;18.60;;;;;;;0.16;86.40;98818.80;104683;1293;71308;-60
2024/01/18 10:32:39;;;;;;;31.90;19.00;;;;;;;0.20;85.96;98811.50;104732;1289;72812;-61
2024/01/18 10:35:25;;;;;;;31.70;17.30;;;;;;;0.45;86.53;98796.50;105988;1292;58981;-62
2024/01/18 10:38:11;;;;;;;34.60;18.00;;;;;;;0.63;86.52;98796.20;105903;1290;59200;-63
2024/01/18 10:40:59;;;;;;;26.60;17.40;;;;;;;0.97;87.02;98797.86;105993;1290;74563;-62
2024/01/18 10:43:48;;;;;;;27.40;15.80;;;;;;;1.26;86.50;98801.54;106037;1290;66370;-62
2024/01/18 10:46:34;;;;;;;25.40;16.00;;;;;;;1.24;85.98;98798.83;105933;1292;72355;-62
2024/01/18 10:49:20;;;;;;;27.30;16.00;;;;;;;1.40;86.51;98799.73;105932;1293;82837;-61
2024/01/18 10:52:09;;;;;;;26.10;15.60;;;;;;;1.65;86.60;98798.30;105827;1290;60041;-60
2024/01/18 10:54:57;;;;;;;27.20;15.80;;;;;;;1.78;86.67;98794.77;105940;1295;73164;-61
2024/01/18 10:57:43;;;;;;;28.10;15.80;;;;;;;1.97;86.48;98802.73;106015;1290;67392;-61
2024/01/18 11:00:29;;;;;;;26.10;15.50;;;;;;;1.95;85.73;98801.39;105530;1295;70399;-59
2024/01/18 11:03:16;;;;;;;23.50;15.70;;;;;;;1.89;86.26;98798.39;104733;1290;61273;-60
2024/01/18 11:06:09;;;;;;;23.30;15.30;;;;;;;1.80;85.81;98804.94;104659;1295;61249;-60
2024/01/18 11:08:57;;;;;;;26.00;15.70;;;;;;;1.80;86.46;98807.99;105954;1292;73954;-61
2024/01/18 11:11:43;;;;;;;20.90;13.70;;;;;;;1.80;85.95;98803.41;105699;1290;67077;-59
2024/01/18 11:14:30;;;;;;;;;;;;;;;1.76;86.26;98813.30;104728;1292;71200;-59
2024/01/18 11:17:17;;;;;;;21.20;14.40;;;;;;;1.69;86.10;98822.37;104667;1294;61097;-59
2024/01/18 11:20:05;;;;;;;26.40;15.50;;;;;;;1.47;85.82;98827.52;104686;1291;61305;-59
2024/01/18 11:22:53;;;;;;;27.50;15.60;;;;;;;1.39;86.20;98828.93;104886;1291;73349;-59
2024/01/18 11:25:40;;;;;;;28.40;16.40;;;;;;;1.38;86.42;98831.49;105823;1291;68209;-59
2024/01/18 11:28:27;;;;;;;23.40;15.20;;;;;;;1.40;86.25;98838.10;104498;1294;71235;-56
2024/01/18 11:31:13;;;;;;;29.80;16.00;;;;;;;1.37;86.27;98844.05;104678;1291;61173;-57
2024/01/18 11:34:00;;;;;;;;;;;;;;;1.37;86.34;98847.96;104717;1291;62003;-55
2024/01/18 11:36:48;;;;;;;26.30;14.60;;;;;;;1.36;86.04;98851.02;104700;1289;73860;-58
2024/01/18 11:39:46;;;;;;;24.70;14.70;;;;;;;1.26;86.17;98853.64;104658;1291;67206;-57
2024/01/18 11:42:34;;;;;;;29.70;16.00;;;;;;;1.23;85.88;98856.55;104529;1294;73553;-57
2024/01/18 11:45:20;;;;;;;25.50;16.00;;;;;;;1.04;85.30;98854.64;104621;1296;61016;-57
2024/01/18 11:48:06;;;;;;;;;;;;;;;0.89;85.61;98852.88;104662;1291;63141;-57
2024/01/18 11:50:54;;;;;;;29.70;16.20;;;;;;;0.87;85.92;98855.60;104614;1291;73058;-60
2024/01/18 11:53:41;;;;;;;29.80;15.90;;;;;;;0.89;85.98;98864.92;104715;1291;68325;-59
2024/01/18 11:56:30;;;;;;;27.30;15.80;;;;;;;0.87;85.68;98868.49;104692;1295;71822;-56
2024/01/18 11:59:17;;;;;;;29.20;16.40;;;;;;;0.82;85.87;98864.95;105853;1291;59242;-58
2024/01/18 12:02:03;;;;;;;23.30;14.70;;;;;;;0.81;85.59;98862.24;104649;1290;61601;-60
2024/01/18 12:04:49;;;;;;;23.30;14.70;;;;;;;0.76;85.77;98859.21;97402;1295;10001418;-57
2024/01/18 12:07:56;;;;;;;24.90;15.70;;;;;;;0.75;85.85;98867.36;54461;1291;20072646;-57
2024/01/18 12:10:42;;;;;;;28.00;16.00;;;;;;;0.87;86.23;98868.83;105896;1292;73358;-58
2024/01/18 12:13:31;;;;;;;28.00;16.00;;;;;;;0.97;86.17;98872.17;85598;1290;10002984;-58
2024/01/18 12:16:37;;;;;;;22.60;13.40;;;;;;;1.12;86.24;98869.69;69327;1291;20059684;-60
2024/01/18 12:19:33;;;;;;;24.90;13.90;;;;;;;1.14;85.79;98869.49;105991;1290;59080;-60
2024/01/18 12:22:20;;;;;;;19.60;13.50;;;;;;;1.18;85.90;98864.04;106029;1290;76153;-60
2024/01/18 12:25:07;;;;;;;23.30;13.60;;;;;;;1.29;86.19;98863.30;105128;1292;68021;-57
2024/01/18 12:27:53;;;;;;;23.80;13.80;;;;;;;1.38;86.13;98857.98;105116;1290;71392;-57
2024/01/18 12:30:42;;;;;;;25.10;13.10;;;;;;;1.46;86.14;98855.36;104742;1292;61276;-59
2024/01/18 12:33:34;;;;;;;23.40;13.60;;;;;;;1.36;85.61;98857.99;104696;1291;61279;-57
2024/01/18 12:36:21;;;;;;;24.10;13.70;;;;;;;1.28;85.78;98858.20;104754;1290;75982;-58
2024/01/18 12:39:07;;;;;;;;;;;;;;;1.26;85.89;98863.98;104738;1295;67200;-58
2024/01/18 12:41:55;;;;;;;24.60;13.30;;;;;;;1.29;86.04;98868.73;104671;1293;71273;-58
2024/01/18 12:44:41;;;;;;;18.50;11.60;;;;;;;1.30;86.11;98874.83;104648;1290;61256;-57
2024/01/18 12:47:27;;;;;;;;;;;;;;;1.29;86.01;98880.44;104759;1291;63113;-58
2024/01/18 12:50:16;;;;;;;16.40;10.90;;;;;;;1.18;85.57;98875.92;104584;1294;75251;-57
2024/01/18 12:53:05;;;;;;;17.70;11.10;;;;;;;1.13;85.70;98875.78;105007;1293;67264;-57
2024/01/18 12:55:51;;;;;;;19.30;11.30;;;;;;;1.05;85.51;98874.31;104635;1294;74060;-59